Weather at Osakana-kaido Helipad

Public forecast

Using degrees Celsius for public forecast. Weather courtesy of forecast.io.

Closest aviation weather report (METAR) to Osakana-kaido Helipad

Closest report is Kochi Ryoma Airport, 36.3 nm (67.2 km) NE. Retrieved 2021/02/27 03:00 UTC (24 minutes ago):

RJOK 270300Z 33014KT 9999 FEW035 BKN/// 13/M02 Q1024

Closest aviation forecast (TAF) to Osakana-kaido Helipad

Closest forecast is Kochi Ryoma Airport, 36.3 nm (67.2 km) NE. Retrieved 2021-02-27 00:30 UTC (3 hours ago):

TAF RJOK 222305Z 2300/2406 35017KT 9999 FEW030 TEMPO 2300/2308 35018G28KT